sensor_id;sensor_type;location;lat;lon;timestamp;P1;durP1;ratioP1;P2;durP2;ratioP2
9520;SDS011;4798;41.574;23.734;2023-11-21T00:00:08;0.40;;;0.30;;
9520;SDS011;4798;41.574;23.734;2023-11-21T00:02:40;0.40;;;0.30;;
9520;SDS011;4798;41.574;23.734;2023-11-21T00:05:10;0.40;;;0.30;;
9520;SDS011;4798;41.574;23.734;2023-11-21T00:07:40;0.33;;;0.23;;
9520;SDS011;4798;41.574;23.734;2023-11-21T00:10:10;0.43;;;0.40;;
9520;SDS011;4798;41.574;23.734;2023-11-21T00:12:41;0.40;;;0.30;;
9520;SDS011;4798;41.574;23.734;2023-11-21T00:15:10;0.40;;;0.30;;
9520;SDS011;4798;41.574;23.734;2023-11-21T00:17:39;0.67;;;0.40;;
9520;SDS011;4798;41.574;23.734;2023-11-21T00:20:08;1.80;;;0.60;;
9520;SDS011;4798;41.574;23.734;2023-11-21T00:22:41;0.93;;;0.93;;
9520;SDS011;4798;41.574;23.734;2023-11-21T00:25:10;1.33;;;0.30;;
9520;SDS011;4798;41.574;23.734;2023-11-21T00:27:42;0.90;;;0.50;;
9520;SDS011;4798;41.574;23.734;2023-11-21T00:30:11;0.50;;;0.50;;
9520;SDS011;4798;41.574;23.734;2023-11-21T00:32:40;1.07;;;1.07;;
9520;SDS011;4798;41.574;23.734;2023-11-21T00:35:10;0.83;;;0.33;;
9520;SDS011;4798;41.574;23.734;2023-11-21T00:37:38;5.27;;;0.53;;
9520;SDS011;4798;41.574;23.734;2023-11-21T00:40:09;2.70;;;0.80;;
9520;SDS011;4798;41.574;23.734;2023-11-21T00:42:38;1.47;;;0.90;;
9520;SDS011;4798;41.574;23.734;2023-11-21T00:45:07;0.40;;;0.30;;
9520;SDS011;4798;41.574;23.734;2023-11-21T00:47:36;1.30;;;0.60;;
9520;SDS011;4798;41.574;23.734;2023-11-21T00:50:05;0.77;;;0.57;;
9520;SDS011;4798;41.574;23.734;2023-11-21T00:52:35;0.70;;;0.70;;
9520;SDS011;4798;41.574;23.734;2023-11-21T00:55:04;0.83;;;0.83;;
9520;SDS011;4798;41.574;23.734;2023-11-21T00:57:35;1.20;;;0.90;;
9520;SDS011;4798;41.574;23.734;2023-11-21T01:00:05;3.90;;;1.40;;
9520;SDS011;4798;41.574;23.734;2023-11-21T01:02:36;1.10;;;0.47;;
9520;SDS011;4798;41.574;23.734;2023-11-21T01:05:05;0.90;;;0.90;;
9520;SDS011;4798;41.574;23.734;2023-11-21T01:07:35;6.07;;;1.30;;
9520;SDS011;4798;41.574;23.734;2023-11-21T01:10:03;1.43;;;1.33;;
9520;SDS011;4798;41.574;23.734;2023-11-21T01:12:36;0.63;;;0.63;;
9520;SDS011;4798;41.574;23.734;2023-11-21T01:15:06;0.73;;;0.73;;
9520;SDS011;4798;41.574;23.734;2023-11-21T01:20:22;4.63;;;0.77;;
9520;SDS011;4798;41.574;23.734;2023-11-21T01:22:51;1.50;;;0.40;;
9520;SDS011;4798;41.574;23.734;2023-11-21T01:25:20;0.40;;;0.40;;
9520;SDS011;4798;41.574;23.734;2023-11-21T01:27:50;0.87;;;0.87;;
9520;SDS011;4798;41.574;23.734;2023-11-21T01:30:19;1.50;;;1.43;;
9520;SDS011;4798;41.574;23.734;2023-11-21T01:32:48;0.40;;;0.30;;
9520;SDS011;4798;41.574;23.734;2023-11-21T01:35:17;0.73;;;0.73;;
9520;SDS011;4798;41.574;23.734;2023-11-21T01:37:45;0.70;;;0.67;;
9520;SDS011;4798;41.574;23.734;2023-11-21T01:40:15;0.40;;;0.30;;
9520;SDS011;4798;41.574;23.734;2023-11-21T01:42:43;0.43;;;0.40;;
9520;SDS011;4798;41.574;23.734;2023-11-21T01:45:15;0.67;;;0.67;;
9520;SDS011;4798;41.574;23.734;2023-11-21T01:47:43;1.33;;;0.70;;
9520;SDS011;4798;41.574;23.734;2023-11-21T01:50:13;0.60;;;0.33;;
9520;SDS011;4798;41.574;23.734;2023-11-21T01:52:46;0.60;;;0.50;;
9520;SDS011;4798;41.574;23.734;2023-11-21T01:55:16;0.60;;;0.50;;
9520;SDS011;4798;41.574;23.734;2023-11-21T01:57:54;0.40;;;0.30;;
9520;SDS011;4798;41.574;23.734;2023-11-21T02:00:25;2.10;;;0.40;;
9520;SDS011;4798;41.574;23.734;2023-11-21T02:02:56;1.37;;;0.93;;
9520;SDS011;4798;41.574;23.734;2023-11-21T02:05:24;0.37;;;0.33;;
9520;SDS011;4798;41.574;23.734;2023-11-21T02:07:52;0.53;;;0.40;;
9520;SDS011;4798;41.574;23.734;2023-11-21T02:10:21;0.53;;;0.50;;
9520;SDS011;4798;41.574;23.734;2023-11-21T02:12:50;0.50;;;0.40;;
9520;SDS011;4798;41.574;23.734;2023-11-21T02:15:19;0.50;;;0.50;;
9520;SDS011;4798;41.574;23.734;2023-11-21T02:17:49;0.43;;;0.40;;
9520;SDS011;4798;41.574;23.734;2023-11-21T02:20:20;0.40;;;0.30;;
9520;SDS011;4798;41.574;23.734;2023-11-21T02:22:53;0.70;;;0.50;;
9520;SDS011;4798;41.574;23.734;2023-11-21T02:25:26;0.77;;;0.60;;
9520;SDS011;4798;41.574;23.734;2023-11-21T02:27:55;0.50;;;0.30;;
9520;SDS011;4798;41.574;23.734;2023-11-21T02:30:24;0.30;;;0.20;;
9520;SDS011;4798;41.574;23.734;2023-11-21T02:32:54;1.60;;;0.37;;
9520;SDS011;4798;41.574;23.734;2023-11-21T02:35:24;0.57;;;0.50;;
9520;SDS011;4798;41.574;23.734;2023-11-21T02:37:55;0.50;;;0.47;;
9520;SDS011;4798;41.574;23.734;2023-11-21T02:40:23;0.40;;;0.30;;
9520;SDS011;4798;41.574;23.734;2023-11-21T02:42:54;0.40;;;0.40;;
9520;SDS011;4798;41.574;23.734;2023-11-21T02:45:26;2.10;;;0.37;;
9520;SDS011;4798;41.574;23.734;2023-11-21T02:47:54;0.40;;;0.20;;
9520;SDS011;4798;41.574;23.734;2023-11-21T02:50:25;0.50;;;0.30;;
9520;SDS011;4798;41.574;23.734;2023-11-21T02:52:55;0.73;;;0.70;;
9520;SDS011;4798;41.574;23.734;2023-11-21T02:55:27;0.40;;;0.30;;
9520;SDS011;4798;41.574;23.734;2023-11-21T02:57:56;0.30;;;0.20;;
9520;SDS011;4798;41.574;23.734;2023-11-21T03:00:24;0.40;;;0.37;;
9520;SDS011;4798;41.574;23.734;2023-11-21T03:02:54;0.40;;;0.20;;
9520;SDS011;4798;41.574;23.734;2023-11-21T03:05:24;0.40;;;0.30;;
9520;SDS011;4798;41.574;23.734;2023-11-21T03:07:52;17.73;;;2.20;;
9520;SDS011;4798;41.574;23.734;2023-11-21T03:10:22;3.70;;;1.83;;
9520;SDS011;4798;41.574;23.734;2023-11-21T03:12:51;0.90;;;0.50;;
9520;SDS011;4798;41.574;23.734;2023-11-21T03:15:19;1.17;;;1.13;;
9520;SDS011;4798;41.574;23.734;2023-11-21T03:17:48;1.37;;;0.70;;
9520;SDS011;4798;41.574;23.734;2023-11-21T03:20:17;1.63;;;0.60;;
9520;SDS011;4798;41.574;23.734;2023-11-21T03:22:45;0.60;;;0.60;;
9520;SDS011;4798;41.574;23.734;2023-11-21T03:25:14;1.40;;;1.30;;
9520;SDS011;4798;41.574;23.734;2023-11-21T03:27:45;0.80;;;0.80;;
9520;SDS011;4798;41.574;23.734;2023-11-21T03:30:14;5.90;;;1.00;;
9520;SDS011;4798;41.574;23.734;2023-11-21T03:32:43;1.10;;;1.10;;
9520;SDS011;4798;41.574;23.734;2023-11-21T03:35:12;2.00;;;0.77;;
9520;SDS011;4798;41.574;23.734;2023-11-21T03:37:40;2.20;;;0.90;;
9520;SDS011;4798;41.574;23.734;2023-11-21T03:40:10;1.30;;;0.97;;
9520;SDS011;4798;41.574;23.734;2023-11-21T03:42:39;0.93;;;0.50;;
9520;SDS011;4798;41.574;23.734;2023-11-21T03:45:10;0.73;;;0.60;;
9520;SDS011;4798;41.574;23.734;2023-11-21T03:47:39;0.60;;;0.60;;
9520;SDS011;4798;41.574;23.734;2023-11-21T03:50:09;0.40;;;0.30;;
9520;SDS011;4798;41.574;23.734;2023-11-21T03:52:38;0.60;;;0.60;;
9520;SDS011;4798;41.574;23.734;2023-11-21T03:55:07;2.13;;;0.80;;
9520;SDS011;4798;41.574;23.734;2023-11-21T03:57:37;0.87;;;0.87;;
9520;SDS011;4798;41.574;23.734;2023-11-21T04:00:06;0.50;;;0.43;;
9520;SDS011;4798;41.574;23.734;2023-11-21T04:02:38;0.70;;;0.40;;
9520;SDS011;4798;41.574;23.734;2023-11-21T04:05:07;0.50;;;0.50;;
9520;SDS011;4798;41.574;23.734;2023-11-21T04:07:36;0.50;;;0.30;;
9520;SDS011;4798;41.574;23.734;2023-11-21T04:10:05;1.10;;;1.00;;
9520;SDS011;4798;41.574;23.734;2023-11-21T04:12:36;1.00;;;1.00;;
9520;SDS011;4798;41.574;23.734;2023-11-21T04:15:04;0.43;;;0.33;;
9520;SDS011;4798;41.574;23.734;2023-11-21T04:17:35;1.37;;;1.00;;
9520;SDS011;4798;41.574;23.734;2023-11-21T04:20:06;0.77;;;0.63;;
9520;SDS011;4798;41.574;23.734;2023-11-21T04:22:37;1.13;;;0.90;;
9520;SDS011;4798;41.574;23.734;2023-11-21T04:25:11;1.30;;;1.20;;
9520;SDS011;4798;41.574;23.734;2023-11-21T04:27:41;0.60;;;0.60;;
9520;SDS011;4798;41.574;23.734;2023-11-21T04:30:11;1.90;;;1.67;;
9520;SDS011;4798;41.574;23.734;2023-11-21T04:32:40;0.50;;;0.40;;
9520;SDS011;4798;41.574;23.734;2023-11-21T04:35:11;1.00;;;1.00;;
9520;SDS011;4798;41.574;23.734;2023-11-21T04:37:39;0.77;;;0.77;;
9520;SDS011;4798;41.574;23.734;2023-11-21T04:40:08;2.53;;;1.00;;
9520;SDS011;4798;41.574;23.734;2023-11-21T04:42:38;0.93;;;0.83;;
9520;SDS011;4798;41.574;23.734;2023-11-21T04:45:06;1.30;;;1.00;;
9520;SDS011;4798;41.574;23.734;2023-11-21T04:47:38;0.53;;;0.50;;
9520;SDS011;4798;41.574;23.734;2023-11-21T04:50:08;1.00;;;0.93;;
9520;SDS011;4798;41.574;23.734;2023-11-21T04:52:38;1.00;;;0.70;;
9520;SDS011;4798;41.574;23.734;2023-11-21T04:55:07;1.97;;;1.70;;
9520;SDS011;4798;41.574;23.734;2023-11-21T04:57:37;5.40;;;1.20;;
9520;SDS011;4798;41.574;23.734;2023-11-21T05:00:09;5.80;;;2.17;;
9520;SDS011;4798;41.574;23.734;2023-11-21T05:02:39;1.70;;;1.60;;
9520;SDS011;4798;41.574;23.734;2023-11-21T05:05:09;1.43;;;1.33;;
9520;SDS011;4798;41.574;23.734;2023-11-21T05:07:39;0.73;;;0.73;;
9520;SDS011;4798;41.574;23.734;2023-11-21T05:10:08;3.87;;;1.87;;
9520;SDS011;4798;41.574;23.734;2023-11-21T05:12:37;1.77;;;1.67;;
9520;SDS011;4798;41.574;23.734;2023-11-21T05:15:07;1.00;;;0.90;;
9520;SDS011;4798;41.574;23.734;2023-11-21T05:17:37;2.87;;;1.30;;
9520;SDS011;4798;41.574;23.734;2023-11-21T05:20:08;0.97;;;0.97;;
9520;SDS011;4798;41.574;23.734;2023-11-21T05:22:41;1.20;;;0.87;;
9520;SDS011;4798;41.574;23.734;2023-11-21T05:25:10;2.30;;;2.20;;
9520;SDS011;4798;41.574;23.734;2023-11-21T05:27:38;1.40;;;1.40;;
9520;SDS011;4798;41.574;23.734;2023-11-21T05:30:07;0.77;;;0.77;;
9520;SDS011;4798;41.574;23.734;2023-11-21T05:32:39;1.03;;;1.03;;
9520;SDS011;4798;41.574;23.734;2023-11-21T05:35:09;1.43;;;1.33;;
9520;SDS011;4798;41.574;23.734;2023-11-21T05:37:45;1.77;;;1.67;;
9520;SDS011;4798;41.574;23.734;2023-11-21T05:40:14;4.20;;;1.27;;
9520;SDS011;4798;41.574;23.734;2023-11-21T05:42:43;1.27;;;1.17;;
9520;SDS011;4798;41.574;23.734;2023-11-21T05:45:12;2.73;;;1.97;;
9520;SDS011;4798;41.574;23.734;2023-11-21T05:47:41;1.50;;;0.90;;
9520;SDS011;4798;41.574;23.734;2023-11-21T05:50:13;1.20;;;1.10;;
9520;SDS011;4798;41.574;23.734;2023-11-21T05:52:45;7.40;;;1.53;;
9520;SDS011;4798;41.574;23.734;2023-11-21T05:55:14;2.17;;;1.97;;
9520;SDS011;4798;41.574;23.734;2023-11-21T05:57:43;3.60;;;1.17;;
9520;SDS011;4798;41.574;23.734;2023-11-21T06:00:12;3.87;;;1.90;;
9520;SDS011;4798;41.574;23.734;2023-11-21T06:02:47;2.70;;;2.00;;
9520;SDS011;4798;41.574;23.734;2023-11-21T06:05:17;4.53;;;1.97;;
9520;SDS011;4798;41.574;23.734;2023-11-21T06:07:48;4.13;;;2.60;;
9520;SDS011;4798;41.574;23.734;2023-11-21T06:10:16;3.20;;;3.00;;
9520;SDS011;4798;41.574;23.734;2023-11-21T06:12:46;2.77;;;2.30;;
9520;SDS011;4798;41.574;23.734;2023-11-21T06:15:15;3.07;;;2.87;;
9520;SDS011;4798;41.574;23.734;2023-11-21T06:17:46;8.90;;;3.83;;
9520;SDS011;4798;41.574;23.734;2023-11-21T06:20:19;4.87;;;4.40;;
9520;SDS011;4798;41.574;23.734;2023-11-21T06:22:49;9.30;;;5.80;;
9520;SDS011;4798;41.574;23.734;2023-11-21T06:25:18;11.10;;;5.63;;
9520;SDS011;4798;41.574;23.734;2023-11-21T06:27:47;6.77;;;4.73;;
9520;SDS011;4798;41.574;23.734;2023-11-21T06:30:16;8.03;;;3.37;;
9520;SDS011;4798;41.574;23.734;2023-11-21T06:32:47;3.97;;;3.63;;
9520;SDS011;4798;41.574;23.734;2023-11-21T06:35:16;7.93;;;5.13;;
9520;SDS011;4798;41.574;23.734;2023-11-21T06:37:45;2.50;;;2.40;;
9520;SDS011;4798;41.574;23.734;2023-11-21T06:40:17;3.80;;;3.00;;
9520;SDS011;4798;41.574;23.734;2023-11-21T06:42:47;6.77;;;1.93;;
9520;SDS011;4798;41.574;23.734;2023-11-21T06:45:17;4.10;;;2.07;;
9520;SDS011;4798;41.574;23.734;2023-11-21T06:47:47;10.80;;;2.17;;
9520;SDS011;4798;41.574;23.734;2023-11-21T06:50:16;9.73;;;2.70;;
9520;SDS011;4798;41.574;23.734;2023-11-21T06:52:44;1.80;;;1.70;;
9520;SDS011;4798;41.574;23.734;2023-11-21T06:55:13;1.20;;;1.00;;
9520;SDS011;4798;41.574;23.734;2023-11-21T06:57:44;1.63;;;1.60;;
9520;SDS011;4798;41.574;23.734;2023-11-21T07:00:15;0.90;;;0.83;;
9520;SDS011;4798;41.574;23.734;2023-11-21T07:02:45;0.73;;;0.73;;
9520;SDS011;4798;41.574;23.734;2023-11-21T07:05:14;0.97;;;0.87;;
9520;SDS011;4798;41.574;23.734;2023-11-21T07:07:47;1.90;;;1.80;;
9520;SDS011;4798;41.574;23.734;2023-11-21T07:10:16;2.63;;;1.23;;
9520;SDS011;4798;41.574;23.734;2023-11-21T07:12:46;1.70;;;1.60;;
9520;SDS011;4798;41.574;23.734;2023-11-21T07:15:15;1.53;;;1.47;;
9520;SDS011;4798;41.574;23.734;2023-11-21T07:17:43;0.97;;;0.90;;
9520;SDS011;4798;41.574;23.734;2023-11-21T07:20:13;1.47;;;1.37;;
9520;SDS011;4798;41.574;23.734;2023-11-21T07:22:44;1.33;;;1.20;;
9520;SDS011;4798;41.574;23.734;2023-11-21T07:25:13;2.57;;;2.40;;
9520;SDS011;4798;41.574;23.734;2023-11-21T07:27:41;3.40;;;3.10;;
9520;SDS011;4798;41.574;23.734;2023-11-21T07:30:12;3.93;;;3.70;;
9520;SDS011;4798;41.574;23.734;2023-11-21T07:32:41;6.33;;;2.73;;
9520;SDS011;4798;41.574;23.734;2023-11-21T07:35:13;4.80;;;3.63;;
9520;SDS011;4798;41.574;23.734;2023-11-21T07:37:42;2.83;;;2.63;;
9520;SDS011;4798;41.574;23.734;2023-11-21T07:40:11;4.03;;;2.20;;
9520;SDS011;4798;41.574;23.734;2023-11-21T07:42:40;3.33;;;3.13;;
9520;SDS011;4798;41.574;23.734;2023-11-21T07:45:10;1.80;;;1.70;;
9520;SDS011;4798;41.574;23.734;2023-11-21T07:47:40;3.63;;;3.43;;
9520;SDS011;4798;41.574;23.734;2023-11-21T07:50:09;5.90;;;2.37;;
9520;SDS011;4798;41.574;23.734;2023-11-21T07:52:38;13.50;;;2.43;;
9520;SDS011;4798;41.574;23.734;2023-11-21T07:55:07;3.20;;;2.93;;
9520;SDS011;4798;41.574;23.734;2023-11-21T07:57:35;1.83;;;1.73;;
9520;SDS011;4798;41.574;23.734;2023-11-21T08:00:04;2.60;;;2.50;;
9520;SDS011;4798;41.574;23.734;2023-11-21T08:02:37;2.37;;;2.27;;
9520;SDS011;4798;41.574;23.734;2023-11-21T08:05:09;0.77;;;0.70;;
9520;SDS011;4798;41.574;23.734;2023-11-21T08:07:50;1.23;;;1.00;;
9520;SDS011;4798;41.574;23.734;2023-11-21T08:10:19;0.70;;;0.70;;
9520;SDS011;4798;41.574;23.734;2023-11-21T08:12:48;2.00;;;1.27;;
9520;SDS011;4798;41.574;23.734;2023-11-21T08:15:18;0.73;;;0.60;;
9520;SDS011;4798;41.574;23.734;2023-11-21T08:17:48;2.30;;;0.90;;
9520;SDS011;4798;41.574;23.734;2023-11-21T08:20:16;2.23;;;1.40;;
9520;SDS011;4798;41.574;23.734;2023-11-21T08:22:45;2.60;;;0.77;;
9520;SDS011;4798;41.574;23.734;2023-11-21T08:25:15;4.83;;;1.20;;
9520;SDS011;4798;41.574;23.734;2023-11-21T08:27:47;1.80;;;0.90;;
9520;SDS011;4798;41.574;23.734;2023-11-21T08:30:15;0.90;;;0.90;;
9520;SDS011;4798;41.574;23.734;2023-11-21T08:32:47;1.27;;;1.20;;
9520;SDS011;4798;41.574;23.734;2023-11-21T08:35:16;1.47;;;1.37;;
9520;SDS011;4798;41.574;23.734;2023-11-21T08:37:45;2.33;;;0.77;;
9520;SDS011;4798;41.574;23.734;2023-11-21T08:40:14;0.50;;;0.47;;
9520;SDS011;4798;41.574;23.734;2023-11-21T08:42:44;0.80;;;0.57;;
9520;SDS011;4798;41.574;23.734;2023-11-21T08:45:13;1.47;;;1.37;;
9520;SDS011;4798;41.574;23.734;2023-11-21T08:47:42;1.10;;;0.67;;
9520;SDS011;4798;41.574;23.734;2023-11-21T08:50:13;0.97;;;0.77;;
9520;SDS011;4798;41.574;23.734;2023-11-21T08:52:42;1.87;;;0.47;;
9520;SDS011;4798;41.574;23.734;2023-11-21T08:55:12;1.67;;;0.63;;
9520;SDS011;4798;41.574;23.734;2023-11-21T08:57:43;0.80;;;0.80;;
9520;SDS011;4798;41.574;23.734;2023-11-21T09:00:13;0.80;;;0.73;;
9520;SDS011;4798;41.574;23.734;2023-11-21T09:02:44;1.03;;;1.00;;
9520;SDS011;4798;41.574;23.734;2023-11-21T09:05:15;3.20;;;1.00;;
9520;SDS011;4798;41.574;23.734;2023-11-21T09:07:44;2.43;;;1.50;;
9520;SDS011;4798;41.574;23.734;2023-11-21T09:10:15;0.80;;;0.73;;
9520;SDS011;4798;41.574;23.734;2023-11-21T09:12:44;1.50;;;1.40;;
9520;SDS011;4798;41.574;23.734;2023-11-21T09:15:12;2.03;;;1.77;;
9520;SDS011;4798;41.574;23.734;2023-11-21T09:17:41;2.60;;;2.50;;
9520;SDS011;4798;41.574;23.734;2023-11-21T09:20:15;2.80;;;1.57;;
9520;SDS011;4798;41.574;23.734;2023-11-21T09:22:43;2.57;;;2.37;;
9520;SDS011;4798;41.574;23.734;2023-11-21T09:25:13;1.13;;;1.00;;
9520;SDS011;4798;41.574;23.734;2023-11-21T09:27:41;1.70;;;1.33;;
9520;SDS011;4798;41.574;23.734;2023-11-21T09:30:10;0.70;;;0.70;;
9520;SDS011;4798;41.574;23.734;2023-11-21T09:32:41;0.60;;;0.50;;
9520;SDS011;4798;41.574;23.734;2023-11-21T09:35:12;1.33;;;1.20;;
9520;SDS011;4798;41.574;23.734;2023-11-21T09:37:44;2.73;;;1.20;;
9520;SDS011;4798;41.574;23.734;2023-11-21T09:40:16;1.47;;;1.33;;
9520;SDS011;4798;41.574;23.734;2023-11-21T09:42:51;2.00;;;1.90;;
9520;SDS011;4798;41.574;23.734;2023-11-21T09:45:27;2.50;;;1.70;;
9520;SDS011;4798;41.574;23.734;2023-11-21T09:47:58;1.23;;;0.80;;
9520;SDS011;4798;41.574;23.734;2023-11-21T09:50:26;1.30;;;1.20;;
9520;SDS011;4798;41.574;23.734;2023-11-21T09:52:57;3.27;;;1.97;;
9520;SDS011;4798;41.574;23.734;2023-11-21T09:55:32;1.00;;;1.00;;
9520;SDS011;4798;41.574;23.734;2023-11-21T09:58:03;2.00;;;1.07;;
9520;SDS011;4798;41.574;23.734;2023-11-21T10:00:34;0.60;;;0.60;;
9520;SDS011;4798;41.574;23.734;2023-11-21T10:03:03;2.03;;;1.20;;
9520;SDS011;4798;41.574;23.734;2023-11-21T10:05:31;1.17;;;0.73;;
9520;SDS011;4798;41.574;23.734;2023-11-21T10:08:02;1.60;;;1.50;;
9520;SDS011;4798;41.574;23.734;2023-11-21T10:10:35;0.53;;;0.40;;
9520;SDS011;4798;41.574;23.734;2023-11-21T10:13:05;1.07;;;1.07;;
9520;SDS011;4798;41.574;23.734;2023-11-21T10:15:34;0.63;;;0.63;;
9520;SDS011;4798;41.574;23.734;2023-11-21T10:18:04;0.60;;;0.60;;
9520;SDS011;4798;41.574;23.734;2023-11-21T10:20:36;0.70;;;0.50;;
9520;SDS011;4798;41.574;23.734;2023-11-21T10:23:06;7.00;;;1.67;;
9520;SDS011;4798;41.574;23.734;2023-11-21T10:25:38;0.97;;;0.50;;
9520;SDS011;4798;41.574;23.734;2023-11-21T10:28:06;0.80;;;0.80;;
9520;SDS011;4798;41.574;23.734;2023-11-21T10:30:35;0.87;;;0.87;;
9520;SDS011;4798;41.574;23.734;2023-11-21T10:33:05;0.60;;;0.37;;
9520;SDS011;4798;41.574;23.734;2023-11-21T10:35:44;0.90;;;0.90;;
9520;SDS011;4798;41.574;23.734;2023-11-21T10:38:19;0.40;;;0.30;;
9520;SDS011;4798;41.574;23.734;2023-11-21T10:40:51;0.40;;;0.30;;
9520;SDS011;4798;41.574;23.734;2023-11-21T10:43:24;3.13;;;0.33;;
9520;SDS011;4798;41.574;23.734;2023-11-21T10:45:54;0.70;;;0.43;;
9520;SDS011;4798;41.574;23.734;2023-11-21T10:48:26;2.40;;;1.83;;
9520;SDS011;4798;41.574;23.734;2023-11-21T10:50:54;0.60;;;0.60;;
9520;SDS011;4798;41.574;23.734;2023-11-21T10:53:28;0.60;;;0.43;;
9520;SDS011;4798;41.574;23.734;2023-11-21T10:56:01;0.40;;;0.30;;
9520;SDS011;4798;41.574;23.734;2023-11-21T10:58:34;0.40;;;0.40;;
9520;SDS011;4798;41.574;23.734;2023-11-21T11:01:04;2.20;;;0.40;;
9520;SDS011;4798;41.574;23.734;2023-11-21T11:06:22;1.07;;;0.97;;
9520;SDS011;4798;41.574;23.734;2023-11-21T11:08:55;0.50;;;0.50;;
9520;SDS011;4798;41.574;23.734;2023-11-21T11:11:24;0.97;;;0.60;;
9520;SDS011;4798;41.574;23.734;2023-11-21T11:13:53;1.10;;;1.03;;
9520;SDS011;4798;41.574;23.734;2023-11-21T11:16:22;0.80;;;0.50;;
9520;SDS011;4798;41.574;23.734;2023-11-21T11:18:52;0.60;;;0.50;;
9520;SDS011;4798;41.574;23.734;2023-11-21T11:21:27;0.50;;;0.50;;
9520;SDS011;4798;41.574;23.734;2023-11-21T11:27:02;0.67;;;0.40;;
9520;SDS011;4798;41.574;23.734;2023-11-21T11:29:41;0.80;;;0.70;;
9520;SDS011;4798;41.574;23.734;2023-11-21T11:32:16;0.40;;;0.30;;
9520;SDS011;4798;41.574;23.734;2023-11-21T11:34:57;0.40;;;0.30;;
9520;SDS011;4798;41.574;23.734;2023-11-21T11:37:31;1.57;;;0.63;;
9520;SDS011;4798;41.574;23.734;2023-11-21T11:40:02;1.33;;;0.47;;
9520;SDS011;4798;41.574;23.734;2023-11-21T11:42:34;0.40;;;0.30;;
9520;SDS011;4798;41.574;23.734;2023-11-21T11:45:03;0.63;;;0.63;;
9520;SDS011;4798;41.574;23.734;2023-11-21T11:47:46;0.60;;;0.40;;
9520;SDS011;4798;41.574;23.734;2023-11-21T11:50:17;0.40;;;0.30;;
9520;SDS011;4798;41.574;23.734;2023-11-21T11:52:47;0.50;;;0.50;;
9520;SDS011;4798;41.574;23.734;2023-11-21T11:55:19;1.30;;;1.30;;
9520;SDS011;4798;41.574;23.734;2023-11-21T11:57:49;0.50;;;0.40;;
9520;SDS011;4798;41.574;23.734;2023-11-21T12:00:20;0.77;;;0.33;;
9520;SDS011;4798;41.574;23.734;2023-11-21T12:02:52;1.17;;;0.50;;
9520;SDS011;4798;41.574;23.734;2023-11-21T12:05:23;0.57;;;0.57;;
9520;SDS011;4798;41.574;23.734;2023-11-21T12:07:54;0.77;;;0.60;;
9520;SDS011;4798;41.574;23.734;2023-11-21T12:10:26;0.70;;;0.70;;
9520;SDS011;4798;41.574;23.734;2023-11-21T12:12:55;0.40;;;0.30;;
9520;SDS011;4798;41.574;23.734;2023-11-21T12:18:12;0.63;;;0.63;;
9520;SDS011;4798;41.574;23.734;2023-11-21T12:20:41;0.50;;;0.30;;
9520;SDS011;4798;41.574;23.734;2023-11-21T12:23:13;0.50;;;0.33;;
9520;SDS011;4798;41.574;23.734;2023-11-21T12:25:45;0.80;;;0.60;;
9520;SDS011;4798;41.574;23.734;2023-11-21T12:28:13;0.50;;;0.30;;
9520;SDS011;4798;41.574;23.734;2023-11-21T12:30:41;0.40;;;0.30;;
9520;SDS011;4798;41.574;23.734;2023-11-21T12:33:11;0.40;;;0.20;;
9520;SDS011;4798;41.574;23.734;2023-11-21T12:35:50;0.40;;;0.30;;
9520;SDS011;4798;41.574;23.734;2023-11-21T12:38:19;0.77;;;0.50;;
9520;SDS011;4798;41.574;23.734;2023-11-21T12:40:52;0.40;;;0.30;;
9520;SDS011;4798;41.574;23.734;2023-11-21T12:43:21;0.50;;;0.33;;
9520;SDS011;4798;41.574;23.734;2023-11-21T12:45:51;0.50;;;0.37;;
9520;SDS011;4798;41.574;23.734;2023-11-21T12:48:32;0.70;;;0.40;;
9520;SDS011;4798;41.574;23.734;2023-11-21T12:51:01;5.23;;;0.90;;
9520;SDS011;4798;41.574;23.734;2023-11-21T12:53:30;6.60;;;3.47;;
9520;SDS011;4798;41.574;23.734;2023-11-21T12:56:07;1.13;;;0.90;;
9520;SDS011;4798;41.574;23.734;2023-11-21T12:58:38;0.53;;;0.53;;
9520;SDS011;4798;41.574;23.734;2023-11-21T13:01:08;0.70;;;0.57;;
9520;SDS011;4798;41.574;23.734;2023-11-21T13:03:38;1.20;;;0.77;;
9520;SDS011;4798;41.574;23.734;2023-11-21T13:06:08;0.43;;;0.27;;
9520;SDS011;4798;41.574;23.734;2023-11-21T13:08:36;0.50;;;0.40;;
9520;SDS011;4798;41.574;23.734;2023-11-21T13:11:07;0.60;;;0.50;;
9520;SDS011;4798;41.574;23.734;2023-11-21T13:13:36;1.37;;;0.70;;
9520;SDS011;4798;41.574;23.734;2023-11-21T13:16:06;0.60;;;0.50;;
9520;SDS011;4798;41.574;23.734;2023-11-21T13:18:36;0.50;;;0.40;;
9520;SDS011;4798;41.574;23.734;2023-11-21T13:21:07;1.07;;;0.50;;
9520;SDS011;4798;41.574;23.734;2023-11-21T13:23:40;0.60;;;0.57;;
9520;SDS011;4798;41.574;23.734;2023-11-21T13:26:11;1.03;;;1.03;;
9520;SDS011;4798;41.574;23.734;2023-11-21T13:28:41;0.70;;;0.63;;
9520;SDS011;4798;41.574;23.734;2023-11-21T13:31:13;0.40;;;0.30;;
9520;SDS011;4798;41.574;23.734;2023-11-21T13:33:52;0.50;;;0.50;;
9520;SDS011;4798;41.574;23.734;2023-11-21T13:36:25;0.40;;;0.30;;
9520;SDS011;4798;41.574;23.734;2023-11-21T13:38:58;0.83;;;0.43;;
9520;SDS011;4798;41.574;23.734;2023-11-21T13:41:32;0.83;;;0.60;;
9520;SDS011;4798;41.574;23.734;2023-11-21T13:44:01;0.43;;;0.30;;
9520;SDS011;4798;41.574;23.734;2023-11-21T13:46:42;0.40;;;0.20;;
9520;SDS011;4798;41.574;23.734;2023-11-21T13:49:12;0.50;;;0.47;;
9520;SDS011;4798;41.574;23.734;2023-11-21T13:51:42;0.93;;;0.83;;
9520;SDS011;4798;41.574;23.734;2023-11-21T13:54:12;0.50;;;0.40;;
9520;SDS011;4798;41.574;23.734;2023-11-21T13:56:42;0.70;;;0.50;;
9520;SDS011;4798;41.574;23.734;2023-11-21T13:59:12;1.70;;;0.90;;
9520;SDS011;4798;41.574;23.734;2023-11-21T14:01:47;3.33;;;1.03;;
9520;SDS011;4798;41.574;23.734;2023-11-21T14:04:24;0.50;;;0.30;;
9520;SDS011;4798;41.574;23.734;2023-11-21T14:07:13;0.40;;;0.30;;
9520;SDS011;4798;41.574;23.734;2023-11-21T14:09:53;0.50;;;0.50;;
9520;SDS011;4798;41.574;23.734;2023-11-21T14:12:24;2.03;;;0.77;;
9520;SDS011;4798;41.574;23.734;2023-11-21T14:14:52;0.53;;;0.53;;
9520;SDS011;4798;41.574;23.734;2023-11-21T14:17:22;0.80;;;0.60;;
9520;SDS011;4798;41.574;23.734;2023-11-21T14:19:51;3.03;;;0.93;;
9520;SDS011;4798;41.574;23.734;2023-11-21T14:22:22;0.50;;;0.40;;
9520;SDS011;4798;41.574;23.734;2023-11-21T14:24:52;3.07;;;0.40;;
9520;SDS011;4798;41.574;23.734;2023-11-21T14:27:23;0.50;;;0.47;;
9520;SDS011;4798;41.574;23.734;2023-11-21T14:29:52;0.50;;;0.47;;
9520;SDS011;4798;41.574;23.734;2023-11-21T14:32:20;1.13;;;0.67;;
9520;SDS011;4798;41.574;23.734;2023-11-21T14:34:49;0.60;;;0.50;;
9520;SDS011;4798;41.574;23.734;2023-11-21T14:37:17;3.70;;;1.13;;
9520;SDS011;4798;41.574;23.734;2023-11-21T14:39:46;2.57;;;1.17;;
9520;SDS011;4798;41.574;23.734;2023-11-21T14:42:16;5.07;;;0.93;;
9520;SDS011;4798;41.574;23.734;2023-11-21T14:44:53;0.50;;;0.40;;
9520;SDS011;4798;41.574;23.734;2023-11-21T14:47:26;0.80;;;0.70;;
9520;SDS011;4798;41.574;23.734;2023-11-21T14:49:55;0.50;;;0.43;;
9520;SDS011;4798;41.574;23.734;2023-11-21T14:52:26;6.80;;;1.23;;
9520;SDS011;4798;41.574;23.734;2023-11-21T14:55:05;1.20;;;0.93;;
9520;SDS011;4798;41.574;23.734;2023-11-21T14:57:53;2.63;;;0.60;;
9520;SDS011;4798;41.574;23.734;2023-11-21T15:00:23;0.93;;;0.93;;
9520;SDS011;4798;41.574;23.734;2023-11-21T15:03:05;0.70;;;0.63;;
9520;SDS011;4798;41.574;23.734;2023-11-21T15:05:36;0.60;;;0.53;;
9520;SDS011;4798;41.574;23.734;2023-11-21T15:08:05;0.50;;;0.40;;
9520;SDS011;4798;41.574;23.734;2023-11-21T15:10:47;4.87;;;1.17;;
9520;SDS011;4798;41.574;23.734;2023-11-21T15:13:20;0.90;;;0.60;;
9520;SDS011;4798;41.574;23.734;2023-11-21T15:15:52;1.93;;;0.90;;
9520;SDS011;4798;41.574;23.734;2023-11-21T15:18:21;1.30;;;0.90;;
9520;SDS011;4798;41.574;23.734;2023-11-21T15:20:51;0.70;;;0.53;;
9520;SDS011;4798;41.574;23.734;2023-11-21T15:23:19;5.63;;;1.67;;
9520;SDS011;4798;41.574;23.734;2023-11-21T15:25:48;0.60;;;0.60;;
9520;SDS011;4798;41.574;23.734;2023-11-21T15:28:16;0.60;;;0.60;;
9520;SDS011;4798;41.574;23.734;2023-11-21T15:30:45;2.50;;;0.80;;